Time;durP1;ratioP1;P1;durP2;ratioP2;P2;SDS_P1;SDS_P2;PMS_P1;PMS_P2;Temp;Humidity;BMP_temperature;BMP_pressure;BME280_temperature;BME280_humidity;BME280_pressure;Samples;Min_cycle;Max_cycle;Signal;HPM_P1;HPM_P2
2022/03/03 00:00:50;;;;;;;29.38;17.25;;;5.20;96.60;;;;;;5013193;28;20046;-75
2022/03/03 00:03:16;;;;;;;31.50;18.83;;;5.10;96.60;;;;;;5010991;28;20110;-76
2022/03/03 00:05:41;;;;;;;34.63;18.35;;;5.20;97.00;;;;;;5013104;28;20026;-74
2022/03/03 00:08:07;;;;;;;31.38;17.75;;;5.10;96.70;;;;;;5011752;28;20485;-74
2022/03/03 00:10:33;;;;;;;32.92;19.38;;;5.20;96.70;;;;;;5012968;28;20030;-75
2022/03/03 00:12:59;;;;;;;32.03;19.30;;;5.10;96.80;;;;;;5012615;28;20025;-74
2022/03/03 00:15:25;;;;;;;32.58;18.27;;;5.10;97.10;;;;;;5028146;28;20528;-74
2022/03/03 00:17:50;;;;;;;31.58;18.42;;;5.00;97.40;;;;;;5011780;28;20368;-75
2022/03/03 00:20:16;;;;;;;30.67;19.10;;;4.70;97.80;;;;;;5012744;28;20044;-75
2022/03/03 00:22:43;;;;;;;34.22;18.55;;;4.80;98.30;;;;;;5012987;28;20065;-75
2022/03/03 00:25:09;;;;;;;29.75;18.63;;;4.70;98.40;;;;;;5012551;28;20046;-73
2022/03/03 00:27:35;;;;;;;27.00;18.08;;;4.80;98.60;;;;;;5012493;28;20029;-75
2022/03/03 00:30:00;;;;;;;34.40;19.75;;;4.80;98.50;;;;;;5012647;28;20038;-75
2022/03/03 00:32:26;;;;;;;30.65;18.52;;;4.80;98.30;;;;;;5012885;28;20040;-74
2022/03/03 00:34:52;;;;;;;33.88;19.52;;;4.80;98.20;;;;;;4994813;28;20065;-75
2022/03/03 00:37:18;;;;;;;32.67;18.73;;;4.80;98.30;;;;;;5012737;28;20034;-74
2022/03/03 00:39:44;;;;;;;31.00;18.75;;;4.90;98.30;;;;;;5011446;28;20258;-73
2022/03/03 00:42:09;;;;;;;33.03;18.90;;;4.90;98.00;;;;;;5011431;28;20390;-75
2022/03/03 00:44:35;;;;;;;31.80;17.92;;;4.80;98.10;;;;;;5012512;28;20038;-75
2022/03/03 00:47:01;;;;;;;30.67;18.10;;;4.80;98.60;;;;;;5012647;28;20022;-75
2022/03/03 00:49:27;;;;;;;31.33;19.35;;;4.80;98.80;;;;;;5011207;28;20532;-75
2022/03/03 00:51:52;;;;;;;38.42;19.23;;;4.80;99.00;;;;;;5012558;28;20053;-75
2022/03/03 00:54:18;;;;;;;37.33;20.63;;;4.80;98.90;;;;;;5012372;28;20034;-74
2022/03/03 00:56:44;;;;;;;32.25;19.58;;;4.80;98.80;;;;;;5012314;28;20030;-75
2022/03/03 00:59:10;;;;;;;34.72;19.30;;;4.90;98.80;;;;;;5012596;28;20064;-74
2022/03/03 01:01:37;;;;;;;38.03;19.73;;;4.90;98.70;;;;;;5010860;28;20061;-74
2022/03/03 01:04:03;;;;;;;34.50;19.88;;;4.80;98.50;;;;;;5012430;28;20389;-74
2022/03/03 01:06:28;;;;;;;35.42;19.33;;;4.80;98.40;;;;;;5012505;28;20109;-75
2022/03/03 01:08:54;;;;;;;33.75;17.95;;;4.80;98.80;;;;;;5011111;28;20117;-75
2022/03/03 01:11:20;;;;;;;33.53;19.20;;;4.80;99.00;;;;;;5008777;28;20052;-74
2022/03/03 01:13:46;;;;;;;36.85;19.95;;;4.80;98.90;;;;;;5012355;28;20022;-74
2022/03/03 01:16:11;;;;;;;31.45;19.27;;;4.80;98.90;;;;;;5014988;28;20376;-74
2022/03/03 01:18:37;;;;;;;36.17;20.25;;;4.70;98.80;;;;;;5015853;28;20057;-72
2022/03/03 01:21:03;;;;;;;33.83;20.48;;;4.70;99.20;;;;;;5015889;28;20040;-74
2022/03/03 01:23:29;;;;;;;34.78;20.45;;;4.80;99.30;;;;;;5015662;28;20037;-74
2022/03/03 01:25:55;;;;;;;41.95;20.55;;;4.80;99.10;;;;;;5015362;28;20034;-74
2022/03/03 01:28:21;;;;;;;36.40;20.48;;;4.80;98.50;;;;;;5015812;28;20497;-74
2022/03/03 01:30:47;;;;;;;37.08;19.80;;;4.80;99.10;;;;;;5015586;28;20048;-73
2022/03/03 01:33:13;;;;;;;37.53;20.88;;;4.90;98.60;;;;;;5015748;28;20026;-71
2022/03/03 01:35:40;;;;;;;36.13;21.33;;;4.90;98.40;;;;;;5015271;28;20033;-71
2022/03/03 01:38:06;;;;;;;37.75;20.45;;;4.80;99.00;;;;;;5015378;28;20052;-71
2022/03/03 01:40:32;;;;;;;31.75;19.83;;;4.80;99.10;;;;;;5015418;28;20471;-71
2022/03/03 01:42:57;;;;;;;37.75;21.30;;;4.80;99.20;;;;;;5015380;28;20053;-72
2022/03/03 01:45:23;;;;;;;36.35;21.30;;;4.80;99.00;;;;;;5015203;28;20077;-72
2022/03/03 01:47:49;;;;;;;35.65;21.58;;;4.90;99.10;;;;;;5014200;28;20483;-72
2022/03/03 01:50:15;;;;;;;34.03;20.38;;;4.90;99.00;;;;;;5014210;28;20030;-71
2022/03/03 01:52:40;;;;;;;35.63;20.83;;;4.90;99.40;;;;;;5015148;28;20478;-72
2022/03/03 01:55:08;;;;;;;40.67;22.48;;;4.90;99.40;;;;;;5015048;28;20040;-72
2022/03/03 01:57:34;;;;;;;35.85;20.77;;;4.90;99.50;;;;;;5015156;28;20041;-72
2022/03/03 02:00:00;;;;;;;35.47;20.42;;;4.80;99.50;;;;;;5015133;28;20034;-71
2022/03/03 02:02:27;;;;;;;36.97;21.00;;;4.80;99.20;;;;;;5015098;28;20061;-71
2022/03/03 02:04:53;;;;;;;36.20;21.65;;;4.70;99.70;;;;;;5015047;28;20137;-71
2022/03/03 02:07:19;;;;;;;36.10;20.63;;;4.60;99.70;;;;;;5014768;28;20022;-71
2022/03/03 02:09:44;;;;;;;34.47;20.60;;;4.60;99.90;;;;;;5014698;28;20036;-71
2022/03/03 02:12:10;;;;;;;33.58;21.10;;;4.60;99.90;;;;;;5014969;28;20025;-71
2022/03/03 02:14:41;;;;;;;36.25;21.23;;;4.60;99.90;;;;;;5014770;28;20108;-72
2022/03/03 02:17:07;;;;;;;34.33;21.20;;;4.60;99.90;;;;;;5014709;28;20105;-71
2022/03/03 02:19:33;;;;;;;37.55;21.75;;;4.60;99.90;;;;;;5014884;28;20034;-71
2022/03/03 02:21:58;;;;;;;38.25;21.55;;;4.60;99.90;;;;;;5014207;28;20037;-71
2022/03/03 02:24:24;;;;;;;33.60;21.40;;;4.50;99.90;;;;;;5014578;28;20042;-71
2022/03/03 02:26:51;;;;;;;37.58;20.65;;;4.50;99.90;;;;;;5013392;28;20030;-71
2022/03/03 02:29:17;;;;;;;37.20;21.35;;;4.40;99.90;;;;;;5014997;28;20146;-75
2022/03/03 02:31:44;;;;;;;40.45;22.23;;;4.50;99.90;;;;;;5014579;28;20109;-75
2022/03/03 02:34:11;;;;;;;37.13;21.95;;;4.50;99.90;;;;;;5012773;28;20113;-75
2022/03/03 02:36:37;;;;;;;35.30;20.95;;;4.50;99.90;;;;;;5013081;28;20044;-74
2022/03/03 02:39:05;;;;;;;34.83;21.48;;;4.40;99.90;;;;;;5014408;28;20059;-75
2022/03/03 02:41:31;;;;;;;36.45;21.88;;;4.40;99.90;;;;;;5012858;28;20022;-74
2022/03/03 02:43:59;;;;;;;36.45;20.90;;;4.30;99.90;;;;;;5014272;28;20096;-74
2022/03/03 02:46:26;;;;;;;34.33;20.73;;;4.30;99.90;;;;;;5014511;28;20042;-74
2022/03/03 02:48:51;;;;;;;39.42;21.80;;;4.20;99.90;;;;;;5012954;28;20080;-72
2022/03/03 02:51:17;;;;;;;33.55;21.05;;;4.20;99.90;;;;;;5013777;28;20040;-75
2022/03/03 02:53:44;;;;;;;38.88;22.90;;;4.20;99.90;;;;;;5014072;28;20053;-73
2022/03/03 02:56:10;;;;;;;39.95;21.55;;;4.20;99.90;;;;;;5013935;28;20477;-75
2022/03/03 02:58:36;;;;;;;34.90;19.83;;;4.10;99.90;;;;;;5014077;28;20022;-75
2022/03/03 03:01:03;;;;;;;41.25;21.05;;;4.20;99.90;;;;;;5014094;28;20474;-74
2022/03/03 03:03:29;;;;;;;33.97;20.58;;;4.20;99.90;;;;;;5013693;28;20026;-75
2022/03/03 03:05:55;;;;;;;33.17;20.38;;;4.20;99.90;;;;;;5013668;28;20509;-75
2022/03/03 03:08:21;;;;;;;38.05;21.27;;;4.20;99.90;;;;;;5013645;28;20076;-74
2022/03/03 03:10:47;;;;;;;38.50;20.63;;;4.00;99.90;;;;;;5013829;28;20034;-74
2022/03/03 03:13:14;;;;;;;38.92;22.15;;;4.10;99.90;;;;;;5013513;28;20033;-75
2022/03/03 03:15:43;;;;;;;40.22;22.42;;;4.10;99.90;;;;;;5013727;28;20474;-75
2022/03/03 03:18:14;;;;;;;37.40;20.70;;;3.90;99.90;;;;;;5013687;28;20030;-74
2022/03/03 03:20:42;;;;;;;38.20;21.60;;;3.90;99.90;;;;;;5013546;28;20121;-75
2022/03/03 03:23:09;;;;;;;37.53;20.08;;;3.80;99.90;;;;;;5008415;28;20034;-74
2022/03/03 03:25:37;;;;;;;35.60;20.90;;;3.80;99.90;;;;;;4993944;28;20561;-73
2022/03/03 03:28:05;;;;;;;34.05;21.05;;;3.90;99.90;;;;;;5007952;28;20417;-74
2022/03/03 03:30:31;;;;;;;36.05;20.40;;;3.80;99.90;;;;;;5013541;28;20033;-74
2022/03/03 03:32:57;;;;;;;39.45;21.50;;;3.80;99.90;;;;;;5013175;28;20084;-73
2022/03/03 03:35:23;;;;;;;43.65;21.25;;;3.80;99.90;;;;;;5011871;28;20034;-74
2022/03/03 03:37:49;;;;;;;36.15;20.92;;;3.80;99.90;;;;;;5013261;28;20117;-75
2022/03/03 03:40:16;;;;;;;36.28;22.25;;;3.90;99.90;;;;;;5013346;28;20057;-74
2022/03/03 03:42:41;;;;;;;33.25;20.77;;;3.90;99.90;;;;;;5012159;28;20112;-72
2022/03/03 03:45:08;;;;;;;38.17;20.83;;;3.90;99.90;;;;;;5011994;28;20134;-73
2022/03/03 03:47:34;;;;;;;31.00;19.90;;;3.80;99.90;;;;;;5013005;28;20032;-71
2022/03/03 03:50:02;;;;;;;35.90;19.92;;;3.70;99.90;;;;;;5013078;28;20470;-71
2022/03/03 03:52:31;;;;;;;33.70;19.60;;;3.70;99.90;;;;;;5013046;28;20072;-71
2022/03/03 03:54:58;;;;;;;36.10;19.58;;;3.70;99.90;;;;;;5013171;28;20449;-71
2022/03/03 03:57:24;;;;;;;34.72;19.92;;;3.50;99.90;;;;;;5011813;28;20041;-71
2022/03/03 03:59:49;;;;;;;38.05;20.17;;;3.40;99.90;;;;;;5013106;28;20034;-71
2022/03/03 04:02:16;;;;;;;35.22;20.45;;;3.50;99.90;;;;;;5011757;28;20034;-71
2022/03/03 04:04:42;;;;;;;36.00;20.10;;;3.50;99.90;;;;;;5012806;28;20057;-71
2022/03/03 04:07:08;;;;;;;33.13;20.02;;;3.60;99.90;;;;;;5013073;28;20026;-71
2022/03/03 04:09:34;;;;;;;33.45;20.05;;;3.60;99.90;;;;;;5012829;28;20036;-72
2022/03/03 04:12:02;;;;;;;34.53;20.73;;;3.60;99.90;;;;;;5011913;28;20026;-71
2022/03/03 04:14:28;;;;;;;38.42;21.63;;;3.60;99.90;;;;;;5012974;28;20041;-71
2022/03/03 04:16:53;;;;;;;31.80;20.17;;;3.70;99.90;;;;;;5013150;28;20125;-71
2022/03/03 04:19:19;;;;;;;41.67;21.83;;;3.60;99.90;;;;;;5012642;28;20068;-71
2022/03/03 04:21:45;;;;;;;39.30;21.80;;;3.60;99.90;;;;;;5012897;28;20030;-71
2022/03/03 04:24:11;;;;;;;34.38;20.48;;;3.50;99.90;;;;;;5012772;28;20438;-71
2022/03/03 04:26:37;;;;;;;35.97;20.08;;;3.40;99.90;;;;;;5012655;28;20041;-71
2022/03/03 04:29:04;;;;;;;36.08;19.85;;;3.60;99.90;;;;;;5012890;28;20018;-71
2022/03/03 04:31:30;;;;;;;40.60;20.35;;;3.50;99.90;;;;;;5012881;28;20034;-71
2022/03/03 04:33:56;;;;;;;37.30;20.88;;;3.50;99.90;;;;;;5012252;28;20058;-72
2022/03/03 04:36:23;;;;;;;37.63;20.38;;;3.50;99.90;;;;;;5012732;28;20046;-71
2022/03/03 04:38:50;;;;;;;31.38;19.73;;;3.40;99.90;;;;;;5012658;28;20026;-71
2022/03/03 04:41:19;;;;;;;40.15;20.95;;;3.40;99.90;;;;;;5012888;28;20091;-71
2022/03/03 04:43:45;;;;;;;34.72;20.05;;;3.40;99.90;;;;;;5012460;28;20038;-71
2022/03/03 04:46:11;;;;;;;35.13;20.00;;;3.40;99.90;;;;;;5011507;28;20168;-71
2022/03/03 04:48:37;;;;;;;34.13;20.52;;;3.40;99.90;;;;;;5011027;28;20109;-71
2022/03/03 04:51:03;;;;;;;38.10;21.08;;;3.40;99.90;;;;;;5015285;28;20479;-71
2022/03/03 04:53:29;;;;;;;35.30;21.15;;;3.40;99.90;;;;;;5016392;28;20037;-70
2022/03/03 04:55:56;;;;;;;37.85;22.02;;;3.50;99.90;;;;;;5015023;28;20025;-71
2022/03/03 04:58:23;;;;;;;43.25;20.92;;;3.50;99.90;;;;;;5016388;28;20482;-71
2022/03/03 05:00:48;;;;;;;35.72;21.63;;;3.50;99.90;;;;;;5016286;28;20024;-71
2022/03/03 05:03:14;;;;;;;42.92;23.42;;;3.40;99.90;;;;;;5015694;28;20104;-71
2022/03/03 05:05:40;;;;;;;40.65;23.35;;;3.40;99.90;;;;;;5015780;28;20048;-71
2022/03/03 05:08:08;;;;;;;39.05;21.90;;;3.40;99.90;;;;;;5016232;28;20026;-71
2022/03/03 05:10:34;;;;;;;42.50;22.30;;;3.40;99.90;;;;;;5016243;28;20052;-75
2022/03/03 05:13:01;;;;;;;45.65;22.63;;;3.40;99.90;;;;;;5016174;28;20024;-74
2022/03/03 05:15:27;;;;;;;37.63;22.88;;;3.30;99.90;;;;;;5015763;28;20026;-74
2022/03/03 05:17:53;;;;;;;37.78;21.08;;;3.20;99.90;;;;;;5014374;28;20445;-75
2022/03/03 05:20:18;;;;;;;38.42;22.05;;;3.20;99.90;;;;;;5030974;28;20124;-74
2022/03/03 05:22:44;;;;;;;33.97;21.10;;;3.30;99.90;;;;;;5015879;28;20022;-74
2022/03/03 05:25:10;;;;;;;42.75;20.65;;;3.30;99.90;;;;;;5015526;28;20108;-75
2022/03/03 05:27:40;;;;;;;42.80;20.40;;;3.40;99.90;;;;;;5014266;28;20030;-74
2022/03/03 05:30:07;;;;;;;38.60;21.85;;;3.30;99.90;;;;;;5015472;28;20478;-74
2022/03/03 05:32:32;;;;;;;40.53;20.60;;;3.30;99.90;;;;;;5015683;28;20382;-74
2022/03/03 05:34:58;;;;;;;41.50;21.67;;;3.30;99.90;;;;;;5015331;28;20037;-74
2022/03/03 05:37:24;;;;;;;38.33;19.45;;;3.30;99.90;;;;;;5014202;28;20556;-74
2022/03/03 05:39:52;;;;;;;33.40;20.15;;;3.30;99.90;;;;;;5015474;28;20394;-75
2022/03/03 05:42:19;;;;;;;38.22;20.23;;;3.30;99.90;;;;;;5014268;28;20033;-74
2022/03/03 05:44:47;;;;;;;35.60;20.67;;;3.30;99.90;;;;;;5014968;28;20053;-74
2022/03/03 05:47:14;;;;;;;36.08;20.98;;;3.30;99.90;;;;;;5015584;28;20030;-75
2022/03/03 05:49:43;;;;;;;45.25;20.10;;;3.20;99.90;;;;;;5015354;28;20045;-74
2022/03/03 05:52:09;;;;;;;34.63;20.05;;;3.30;99.90;;;;;;5015175;28;20097;-74
2022/03/03 05:54:36;;;;;;;36.30;20.17;;;3.30;99.90;;;;;;5015347;28;20104;-72
2022/03/03 05:57:06;;;;;;;35.30;20.60;;;3.30;99.90;;;;;;5015034;28;20045;-72
2022/03/03 05:59:35;;;;;;;35.30;20.95;;;3.40;99.90;;;;;;5014953;28;20084;-71
2022/03/03 06:02:02;;;;;;;48.65;23.70;;;3.40;99.90;;;;;;5013817;28;20113;-71
2022/03/03 06:04:28;;;;;;;47.05;23.50;;;3.40;99.90;;;;;;5014750;28;20072;-72
2022/03/03 06:07:08;;;;;;;48.80;24.40;;;3.40;99.90;;;;;;5014956;28;20034;-71
2022/03/03 06:09:35;;;;;;;45.80;23.05;;;3.50;99.90;;;;;;5014886;28;20033;-71
2022/03/03 06:12:08;;;;;;;53.63;24.40;;;3.40;99.90;;;;;;4995128;28;20093;-71
2022/03/03 06:14:46;;;;;;;61.42;26.77;;;3.40;99.90;;;;;;4995182;28;20041;-71
2022/03/03 06:17:14;;;;;;;62.42;27.98;;;3.50;99.90;;;;;;4995159;28;20110;-71
2022/03/03 06:19:41;;;;;;;48.95;21.95;;;3.50;99.90;;;;;;4995146;28;20534;-71
2022/03/03 06:22:09;;;;;;;47.50;24.80;;;3.30;99.90;;;;;;4993890;28;20034;-71
2022/03/03 06:24:35;;;;;;;47.90;23.88;;;3.30;99.90;;;;;;4994891;28;20077;-71
2022/03/03 06:27:01;;;;;;;45.45;22.15;;;3.30;99.90;;;;;;4999176;28;20072;-71
2022/03/03 06:29:27;;;;;;;47.03;24.40;;;3.30;99.90;;;;;;5014388;28;20041;-71
2022/03/03 06:31:53;;;;;;;51.75;23.42;;;3.30;99.90;;;;;;5013054;28;20041;-71
2022/03/03 06:34:20;;;;;;;41.85;22.80;;;3.30;99.90;;;;;;5014179;28;20038;-71
2022/03/03 06:36:46;;;;;;;34.65;19.73;;;3.30;99.90;;;;;;5014429;28;20037;-71
2022/03/03 06:39:12;;;;;;;42.50;20.55;;;3.20;99.90;;;;;;5013145;28;20029;-71
2022/03/03 06:41:38;;;;;;;36.35;19.90;;;3.30;99.90;;;;;;5014247;28;20118;-71
2022/03/03 06:44:05;;;;;;;37.47;20.92;;;3.40;99.90;;;;;;5013987;28;20057;-71
2022/03/03 06:46:31;;;;;;;44.30;20.63;;;3.50;99.90;;;;;;5014351;28;20042;-71
2022/03/03 06:48:57;;;;;;;35.17;21.52;;;3.50;99.90;;;;;;5013085;28;20101;-71
2022/03/03 06:51:25;;;;;;;44.15;22.60;;;3.50;99.90;;;;;;5014156;28;20073;-71
2022/03/03 06:53:55;;;;;;;42.92;22.85;;;3.50;99.90;;;;;;5014010;28;20489;-71
2022/03/03 06:56:25;;;;;;;36.47;20.88;;;3.60;99.90;;;;;;5014099;28;20428;-71
2022/03/03 06:58:53;;;;;;;36.70;21.27;;;3.60;99.90;;;;;;5013848;28;20549;-71
2022/03/03 07:01:23;;;;;;;34.70;19.77;;;3.70;99.90;;;;;;5014433;28;20378;-71
2022/03/03 07:03:49;;;;;;;35.53;18.77;;;3.70;99.90;;;;;;5013369;28;20038;-71
2022/03/03 07:06:15;;;;;;;40.22;19.70;;;3.80;99.90;;;;;;5013979;28;20044;-71
2022/03/03 07:08:42;;;;;;;35.45;19.10;;;3.80;99.90;;;;;;5012701;28;20073;-71
2022/03/03 07:11:08;;;;;;;32.70;19.42;;;3.90;99.90;;;;;;5013653;28;20036;-71
2022/03/03 07:13:34;;;;;;;36.55;18.88;;;4.00;99.90;;;;;;5013184;28;20108;-71
2022/03/03 07:16:17;;;;;;;38.38;19.17;;;4.10;99.90;;;;;;5013575;28;20026;-71
2022/03/03 07:18:45;;;;;;;33.03;18.75;;;4.20;99.90;;;;;;5013633;28;20359;-72
2022/03/03 07:21:22;;;;;;;38.22;19.42;;;4.20;99.90;;;;;;5010921;28;20117;-71
2022/03/03 07:23:58;;;;;;;27.02;17.25;;;4.30;99.90;;;;;;5011567;28;20034;-72
2022/03/03 07:26:25;;;;;;;37.55;18.10;;;4.40;99.90;;;;;;5012068;28;20029;-71
2022/03/03 07:28:54;;;;;;;35.30;17.42;;;4.50;99.90;;;;;;5010331;28;20033;-72
2022/03/03 07:31:23;;;;;;;37.08;19.10;;;4.60;99.90;;;;;;5011915;28;20148;-72
2022/03/03 07:33:57;;;;;;;34.58;18.73;;;4.60;99.90;;;;;;5012293;28;20113;-71
2022/03/03 07:36:28;;;;;;;37.63;18.92;;;4.70;99.90;;;;;;5012775;28;20053;-71
2022/03/03 07:39:04;;;;;;;42.67;17.70;;;4.80;99.90;;;;;;5012954;28;20049;-72
2022/03/03 07:41:30;;;;;;;34.85;17.90;;;4.80;99.90;;;;;;5011430;28;20109;-72
2022/03/03 07:43:58;;;;;;;35.80;17.63;;;4.90;99.90;;;;;;5012571;28;20029;-72
2022/03/03 07:46:25;;;;;;;32.63;18.85;;;5.10;99.90;;;;;;5012781;28;20052;-71
2022/03/03 07:48:53;;;;;;;39.58;17.95;;;5.20;99.90;;;;;;5011571;28;20474;-71
2022/03/03 07:51:20;;;;;;;37.38;17.75;;;5.30;99.90;;;;;;4993069;28;20109;-72
2022/03/03 07:53:46;;;;;;;32.65;17.17;;;5.50;99.90;;;;;;4993373;28;20386;-74
2022/03/03 07:56:24;;;;;;;31.08;18.52;;;5.40;99.90;;;;;;4997557;28;20041;-74
2022/03/03 07:58:54;;;;;;;32.85;18.02;;;5.50;99.90;;;;;;5011524;28;20425;-74
2022/03/03 08:01:22;;;;;;;31.65;17.65;;;5.60;99.90;;;;;;5011624;28;20030;-72
2022/03/03 08:03:47;;;;;;;34.63;18.45;;;5.70;99.80;;;;;;5011978;28;20022;-71
2022/03/03 08:06:15;;;;;;;40.45;17.77;;;5.80;99.90;;;;;;5012592;28;20037;-74
2022/03/03 08:08:42;;;;;;;33.75;18.08;;;5.90;99.90;;;;;;5012553;28;20033;-74
2022/03/03 08:11:09;;;;;;;35.10;17.63;;;6.00;99.50;;;;;;4999601;28;20120;-75
2022/03/03 08:13:35;;;;;;;31.05;17.83;;;6.10;99.70;;;;;;5005215;28;20034;-73
2022/03/03 08:16:02;;;;;;;30.55;17.38;;;6.30;99.30;;;;;;5012583;28;20026;-71
2022/03/03 08:18:32;;;;;;;30.13;17.15;;;6.40;98.90;;;;;;5012528;28;20044;-71
2022/03/03 08:21:02;;;;;;;31.67;18.83;;;6.40;98.80;;;;;;5011079;28;20026;-72
2022/03/03 08:23:30;;;;;;;33.63;18.92;;;6.40;98.20;;;;;;5012356;28;20112;-71
2022/03/03 08:25:57;;;;;;;38.65;17.85;;;6.60;98.00;;;;;;5014789;28;20069;-71
2022/03/03 08:28:24;;;;;;;36.72;17.27;;;6.60;97.60;;;;;;5014909;28;20054;-71
2022/03/03 08:31:02;;;;;;;32.75;17.20;;;6.70;97.90;;;;;;5015136;28;20390;-71
2022/03/03 08:33:46;;;;;;;47.75;19.17;;;6.80;97.50;;;;;;5016136;28;20398;-71
2022/03/03 08:36:26;;;;;;;31.58;18.15;;;7.00;97.40;;;;;;5016157;28;20038;-71
2022/03/03 08:38:53;;;;;;;38.80;18.00;;;7.10;96.40;;;;;;5015461;28;20037;-72
2022/03/03 08:41:23;;;;;;;32.83;17.75;;;7.20;97.30;;;;;;5016184;28;20075;-71
2022/03/03 08:43:52;;;;;;;29.98;17.48;;;7.40;96.50;;;;;;5015868;28;20040;-71
2022/03/03 08:46:25;;;;;;;36.90;18.38;;;7.70;96.80;;;;;;5016040;28;20536;-72
2022/03/03 08:48:53;;;;;;;32.63;18.63;;;7.90;97.40;;;;;;5016015;28;20102;-71
2022/03/03 08:51:19;;;;;;;32.95;17.63;;;8.00;96.10;;;;;;5015871;28;20030;-71
2022/03/03 08:53:46;;;;;;;32.20;16.63;;;8.20;96.10;;;;;;5015807;28;20073;-71
2022/03/03 08:56:12;;;;;;;32.65;18.08;;;8.40;96.40;;;;;;5015790;28;20030;-71
2022/03/03 08:58:38;;;;;;;35.67;17.25;;;8.50;96.60;;;;;;5014947;28;20390;-71
2022/03/03 09:01:04;;;;;;;33.13;17.13;;;8.60;96.40;;;;;;5014469;28;20035;-71
2022/03/03 09:03:30;;;;;;;29.25;17.35;;;8.80;95.30;;;;;;5014671;28;20026;-71
2022/03/03 09:05:56;;;;;;;31.00;17.40;;;8.90;95.40;;;;;;5015700;28;20041;-69
2022/03/03 09:08:23;;;;;;;32.45;17.08;;;8.90;94.80;;;;;;5014294;28;20474;-71
2022/03/03 09:10:50;;;;;;;29.40;17.10;;;9.10;94.90;;;;;;5015169;28;20041;-71
2022/03/03 09:13:16;;;;;;;29.05;17.40;;;9.10;94.00;;;;;;5014129;28;20048;-71
2022/03/03 09:15:42;;;;;;;30.83;18.02;;;9.10;94.20;;;;;;5015684;28;20044;-71
2022/03/03 09:18:09;;;;;;;31.10;17.98;;;9.30;94.30;;;;;;5015869;28;20034;-70
2022/03/03 09:20:35;;;;;;;31.17;17.13;;;9.30;94.40;;;;;;5015259;28;20037;-72
2022/03/03 09:23:02;;;;;;;30.92;17.02;;;9.40;95.00;;;;;;5015314;28;20038;-72
2022/03/03 09:25:29;;;;;;;40.25;19.10;;;9.60;93.70;;;;;;5014102;28;20030;-71
2022/03/03 09:27:54;;;;;;;30.67;18.80;;;9.70;93.60;;;;;;5015484;28;20030;-71
2022/03/03 09:30:21;;;;;;;34.15;19.17;;;9.90;94.40;;;;;;5014131;28;20033;-71
2022/03/03 09:32:47;;;;;;;37.28;19.33;;;9.90;95.20;;;;;;5015431;28;20030;-71
2022/03/03 09:35:14;;;;;;;35.15;18.70;;;10.20;94.50;;;;;;5015005;28;20052;-71
2022/03/03 09:37:40;;;;;;;37.22;18.48;;;10.70;93.70;;;;;;5014340;28;20172;-74
2022/03/03 09:40:08;;;;;;;37.40;18.63;;;10.80;93.70;;;;;;5015109;28;20037;-72
2022/03/03 09:42:34;;;;;;;39.40;19.55;;;10.70;93.60;;;;;;5014742;28;20025;-74
2022/03/03 09:45:06;;;;;;;35.13;18.65;;;11.00;93.40;;;;;;5013823;28;20558;-74
2022/03/03 09:47:35;;;;;;;32.10;18.63;;;11.20;93.10;;;;;;5013701;28;20038;-73
2022/03/03 09:50:02;;;;;;;37.20;18.20;;;11.00;93.00;;;;;;5014728;28;20463;-75
2022/03/03 09:52:30;;;;;;;32.85;19.48;;;11.00;93.20;;;;;;5013724;28;20032;-73
2022/03/03 09:54:57;;;;;;;38.13;20.27;;;11.10;93.00;;;;;;5014993;28;20034;-72
2022/03/03 09:57:24;;;;;;;31.67;19.45;;;11.30;93.60;;;;;;5014443;28;20125;-72
2022/03/03 09:59:52;;;;;;;30.52;18.55;;;11.30;92.70;;;;;;5013077;28;20034;-72
2022/03/03 10:02:19;;;;;;;35.42;18.88;;;11.40;91.90;;;;;;5014272;28;20022;-72
2022/03/03 10:04:44;;;;;;;34.42;17.67;;;11.40;92.50;;;;;;5014332;28;20062;-73
2022/03/03 10:07:11;;;;;;;34.92;18.42;;;11.30;91.70;;;;;;5013637;28;20034;-72
2022/03/03 10:12:23;;;;;;;32.88;20.40;;;11.70;92.10;;;;;;5014224;28;20026;-73
2022/03/03 10:14:50;;;;;;;35.90;20.85;;;11.60;93.10;;;;;;5014576;28;20026;-72
2022/03/03 10:17:16;;;;;;;37.13;19.67;;;11.70;93.10;;;;;;5014348;28;20053;-72
2022/03/03 10:19:56;;;;;;;34.67;20.63;;;12.10;92.70;;;;;;5012505;28;20055;-74
2022/03/03 10:22:42;;;;;;;33.10;20.48;;;12.60;92.50;;;;;;5013743;28;20044;-72
2022/03/03 10:25:14;;;;;;;40.47;20.92;;;12.70;92.30;;;;;;5012664;28;20144;-74
2022/03/03 10:27:41;;;;;;;38.72;20.33;;;12.80;92.10;;;;;;5012762;28;20475;-71
2022/03/03 10:30:09;;;;;;;38.45;20.55;;;12.80;91.70;;;;;;5013956;28;20509;-72
2022/03/03 10:32:36;;;;;;;35.92;20.38;;;12.70;91.70;;;;;;5013871;28;20030;-73
2022/03/03 10:35:19;;;;;;;37.08;20.92;;;12.70;92.40;;;;;;5013039;28;20100;-73
2022/03/03 10:37:47;;;;;;;39.45;20.00;;;12.70;91.40;;;;;;5010452;28;20544;-71
2022/03/03 10:40:17;;;;;;;34.72;21.63;;;12.80;92.10;;;;;;5013066;28;20029;-72
2022/03/03 10:42:46;;;;;;;34.20;19.88;;;13.00;92.00;;;;;;5014103;28;20034;-71
2022/03/03 10:45:16;;;;;;;33.92;19.13;;;13.20;91.70;;;;;;5012716;28;20552;-73
2022/03/03 10:48:03;;;;;;;37.58;20.58;;;13.60;91.00;;;;;;4995884;28;20030;-70
2022/03/03 10:50:49;;;;;;;35.42;19.45;;;13.70;90.50;;;;;;5013916;28;20038;-71
2022/03/03 10:53:19;;;;;;;42.20;19.98;;;13.80;89.60;;;;;;5013208;28;20030;-71
2022/03/03 10:56:07;;;;;;;26.27;17.15;;;14.10;89.70;;;;;;5012757;28;20041;-71
2022/03/03 10:58:52;;;;;;;30.77;18.05;;;14.20;87.20;;;;;;5029198;28;20029;-70
2022/03/03 11:01:26;;;;;;;30.98;18.27;;;14.50;86.70;;;;;;5012656;28;20106;-72
2022/03/03 11:03:53;;;;;;;30.45;17.25;;;14.70;85.90;;;;;;5013400;28;20041;-70
2022/03/03 11:06:24;;;;;;;30.13;19.15;;;15.10;86.80;;;;;;5013901;28;20061;-72
2022/03/03 11:08:53;;;;;;;28.00;17.75;;;15.30;86.50;;;;;;5011311;28;20029;-71
2022/03/03 11:11:20;;;;;;;29.73;17.77;;;15.20;84.50;;;;;;5012298;28;20026;-74
2022/03/03 11:13:49;;;;;;;31.20;17.80;;;15.50;84.30;;;;;;5011556;28;20065;-74
2022/03/03 11:16:20;;;;;;;27.40;18.00;;;15.20;83.50;;;;;;5012943;28;20049;-74
2022/03/03 11:18:46;;;;;;;29.33;18.60;;;15.40;85.30;;;;;;5013274;28;20470;-74
2022/03/03 11:21:13;;;;;;;30.42;17.80;;;16.10;84.00;;;;;;5013627;28;20071;-74
2022/03/03 11:23:47;;;;;;;28.48;17.45;;;16.20;84.10;;;;;;5013104;28;20485;-74
2022/03/03 11:26:26;;;;;;;32.80;18.17;;;16.50;83.30;;;;;;5013545;28;20037;-73
2022/03/03 11:29:16;;;;;;;25.08;17.27;;;16.80;81.90;;;;;;5002115;28;20497;-74
2022/03/03 11:32:03;;;;;;;35.47;18.05;;;17.00;81.30;;;;;;5002590;28;20485;-73
2022/03/03 11:34:32;;;;;;;32.15;17.20;;;18.10;80.90;;;;;;5011365;28;20399;-74
2022/03/03 11:37:21;;;;;;;28.95;16.88;;;18.00;78.60;;;;;;5011976;28;20041;-74
2022/03/03 11:39:58;;;;;;;24.23;17.30;;;17.80;78.40;;;;;;5013013;28;20537;-75
2022/03/03 11:42:38;;;;;;;29.85;16.92;;;18.50;79.30;;;;;;5012594;28;20505;-74
2022/03/03 11:45:09;;;;;;;27.25;17.35;;;18.40;77.60;;;;;;5012775;28;20116;-74
2022/03/03 11:47:36;;;;;;;;;;;18.20;77.40;;;;;;5012960;28;20045;-70
2022/03/03 11:50:24;;;;;;;26.17;16.23;;;19.10;76.40;;;;;;5011205;28;19905;-75
2022/03/03 11:52:59;;;;;;;28.38;16.02;;;19.60;75.50;;;;;;5013145;28;20026;-72
2022/03/03 11:55:34;;;;;;;22.98;17.30;;;20.20;74.20;;;;;;5013060;28;20044;-74
2022/03/03 11:58:01;;;;;;;26.83;15.50;;;20.70;73.50;;;;;;5012776;28;20065;-73
2022/03/03 12:00:27;;;;;;;29.20;16.60;;;21.30;73.90;;;;;;5013076;28;20034;-76
2022/03/03 12:03:01;;;;;;;28.42;16.85;;;21.50;73.80;;;;;;5012548;28;20036;-75
2022/03/03 12:05:36;;;;;;;26.95;15.90;;;22.00;73.40;;;;;;5011594;28;20056;-75
2022/03/03 12:08:05;;;;;;;26.40;16.48;;;21.50;69.70;;;;;;5012632;28;20469;-73
2022/03/03 12:10:32;;;;;;;24.30;16.50;;;21.20;69.60;;;;;;5012906;28;20026;-75
2022/03/03 12:13:25;;;;;;;25.40;15.80;;;19.00;71.30;;;;;;5012874;28;20105;-75
2022/03/03 12:16:18;;;;;;;26.33;15.63;;;20.20;72.50;;;;;;5011647;28;20050;-74
2022/03/03 12:18:55;;;;;;;22.00;16.52;;;21.50;70.90;;;;;;5012800;28;20034;-74
2022/03/03 12:21:37;;;;;;;22.10;15.70;;;21.70;69.50;;;;;;5011448;28;20446;-76
2022/03/03 12:24:14;;;;;;;;;;;22.10;69.10;;;;;;5012952;28;20026;-75
2022/03/03 12:26:55;;;;;;;24.05;16.60;;;22.60;69.10;;;;;;5012871;28;19913;-75
2022/03/03 12:29:42;;;;;;;30.90;16.85;;;22.10;69.40;;;;;;5012550;28;20501;-74
2022/03/03 12:32:26;;;;;;;24.63;17.10;;;22.10;69.90;;;;;;4998971;28;20046;-74
2022/03/03 12:34:54;;;;;;;24.48;16.20;;;23.20;69.20;;;;;;5012523;28;20103;-75
2022/03/03 12:37:20;;;;;;;26.45;17.77;;;23.40;69.00;;;;;;5012694;28;20073;-75
2022/03/03 12:39:55;;;;;;;24.42;17.80;;;22.30;67.40;;;;;;5012703;28;20061;-75
2022/03/03 12:42:24;;;;;;;33.28;17.80;;;20.60;68.30;;;;;;5012649;28;20567;-75
2022/03/03 12:44:51;;;;;;;29.73;17.58;;;20.80;70.60;;;;;;5012296;28;20033;-74